createdAt,value
2019-02-08T00:00:10.586Z,76.59
2019-02-08T00:02:37.992Z,76.49
2019-02-08T00:05:05.417Z,76.26
2019-02-08T00:07:32.838Z,75.98
2019-02-08T00:10:00.234Z,75.99
2019-02-08T00:12:27.668Z,76.14
2019-02-08T00:14:55.077Z,76.12
2019-02-08T00:17:22.478Z,76.06
2019-02-08T00:19:50.113Z,76.15
2019-02-08T00:22:17.545Z,76.19
2019-02-08T00:24:45.523Z,76.14
2019-02-08T00:27:12.927Z,76.15
2019-02-08T00:29:40.510Z,76.16
2019-02-08T00:32:07.995Z,76.16
2019-02-08T00:34:35.400Z,76.06
2019-02-08T00:37:02.799Z,76.36
2019-02-08T00:39:30.204Z,76.52
2019-02-08T00:41:57.669Z,76.76
2019-02-08T00:44:25.062Z,77.05
2019-02-08T00:46:52.469Z,77.47
2019-02-08T00:49:19.882Z,77.63
2019-02-08T00:51:47.287Z,77.93
2019-02-08T00:54:14.835Z,78.02
2019-02-08T00:56:42.231Z,77.89
2019-02-08T00:59:09.639Z,77.49
2019-02-08T01:01:37.059Z,77.46
2019-02-08T01:04:04.498Z,77.62
2019-02-08T01:06:31.899Z,77.90
2019-02-08T01:08:59.443Z,78.17
2019-02-08T01:11:26.848Z,77.84
2019-02-08T01:13:54.283Z,77.93
2019-02-08T01:16:21.683Z,78.28
2019-02-08T01:18:49.094Z,78.53
2019-02-08T01:21:16.520Z,78.60
2019-02-08T01:23:43.970Z,78.64
2019-02-08T01:26:11.369Z,78.55
2019-02-08T01:28:38.777Z,78.62
2019-02-08T01:31:06.173Z,78.38
2019-02-08T01:33:33.571Z,78.42
2019-02-08T01:36:00.965Z,78.70
2019-02-08T01:38:28.346Z,78.97
2019-02-08T01:40:55.757Z,79.37
2019-02-08T01:43:23.162Z,79.71
2019-02-08T01:45:50.603Z,79.61
2019-02-08T01:48:18.150Z,79.45
2019-02-08T01:50:45.608Z,79.42
2019-02-08T01:53:12.987Z,79.59
2019-02-08T01:55:40.941Z,79.44
2019-02-08T01:58:08.344Z,79.41
2019-02-08T02:00:38.514Z,79.53
2019-02-08T02:03:05.951Z,79.54
2019-02-08T02:05:33.342Z,79.52
2019-02-08T02:08:00.766Z,79.44
2019-02-08T02:10:44.715Z,79.26
2019-02-08T02:13:12.137Z,79.16
2019-02-08T02:15:39.549Z,79.13
2019-02-08T02:18:06.974Z,79.06
2019-02-08T02:20:34.551Z,78.69
2019-02-08T02:23:01.992Z,78.54
2019-02-08T02:25:29.372Z,78.63
2019-02-08T02:27:56.805Z,78.56
2019-02-08T02:30:25.741Z,78.56
2019-02-08T02:32:53.271Z,78.74
2019-02-08T02:35:20.678Z,79.25
2019-02-08T02:37:48.080Z,79.60
2019-02-08T02:40:15.492Z,79.90
2019-02-08T02:42:43.084Z,80.12
2019-02-08T02:45:11.892Z,80.11
2019-02-08T02:47:39.292Z,79.99
2019-02-08T02:50:06.702Z,79.87
2019-02-08T02:52:34.144Z,79.76
2019-02-08T02:55:01.607Z,79.89
2019-02-08T02:57:29.053Z,79.60
2019-02-08T02:59:56.443Z,79.85
2019-02-08T03:02:23.848Z,80.14
2019-02-08T03:04:51.236Z,80.51
2019-02-08T03:07:18.631Z,80.68
2019-02-08T03:09:46.114Z,80.69
2019-02-08T03:12:14.043Z,80.27
2019-02-08T03:14:41.468Z,80.22
2019-02-08T03:17:08.928Z,80.42
2019-02-08T03:19:36.338Z,80.67
2019-02-08T03:22:03.746Z,80.61
2019-02-08T03:24:31.150Z,80.37
2019-02-08T03:26:58.582Z,80.22
2019-02-08T03:29:26.008Z,80.24
2019-02-08T03:31:53.471Z,80.04
2019-02-08T03:34:20.928Z,80.03
2019-02-08T03:36:48.312Z,79.94
2019-02-08T03:39:15.707Z,79.82
2019-02-08T03:41:44.123Z,79.75
2019-02-08T03:44:11.508Z,79.79
2019-02-08T03:46:38.892Z,79.90
2019-02-08T03:49:06.351Z,79.99
2019-02-08T03:51:33.771Z,80.27
2019-02-08T03:54:01.175Z,80.12
2019-02-08T03:56:28.578Z,80.18
2019-02-08T03:58:55.988Z,80.28
2019-02-08T04:01:23.568Z,80.40
2019-02-08T04:03:50.947Z,80.35
2019-02-08T04:06:18.357Z,80.72
2019-02-08T04:08:45.747Z,80.96
2019-02-08T04:11:13.198Z,80.82
2019-02-08T04:13:41.063Z,80.90
2019-02-08T04:16:08.475Z,80.95
2019-02-08T04:18:35.982Z,81.17
2019-02-08T04:21:03.643Z,81.34
2019-02-08T04:23:31.102Z,81.48
2019-02-08T04:25:58.481Z,81.33
2019-02-08T04:28:25.895Z,81.35
2019-02-08T04:30:53.291Z,81.33
2019-02-08T04:33:20.928Z,81.44
2019-02-08T04:35:48.352Z,81.34
2019-02-08T04:38:15.769Z,81.32
2019-02-08T04:40:43.210Z,81.37
2019-02-08T04:43:10.668Z,81.16
2019-02-08T04:45:38.078Z,81.13
2019-02-08T04:48:05.468Z,81.30
2019-02-08T04:50:33.129Z,81.41
2019-02-08T04:53:00.504Z,81.62
2019-02-08T04:55:27.945Z,81.93
2019-02-08T04:57:55.377Z,81.95
2019-02-08T05:00:38.551Z,81.94
2019-02-08T05:03:05.951Z,81.74
2019-02-08T05:05:33.355Z,81.72
2019-02-08T05:08:00.776Z,81.69
2019-02-08T05:10:28.346Z,81.80
2019-02-08T05:12:55.751Z,81.83
2019-02-08T05:15:23.313Z,81.75
2019-02-08T05:17:50.577Z,81.84
2019-02-08T05:20:18.688Z,81.80
2019-02-08T05:22:46.090Z,81.81
2019-02-08T05:25:13.514Z,81.85
2019-02-08T05:27:40.918Z,81.94
2019-02-08T05:30:13.126Z,81.95
2019-02-08T05:32:40.625Z,81.86
2019-02-08T05:35:08.041Z,81.65
2019-02-08T05:37:35.453Z,81.69
2019-02-08T05:40:02.960Z,81.63
2019-02-08T05:42:30.364Z,81.50
2019-02-08T05:44:57.767Z,81.43
2019-02-08T05:47:25.174Z,81.52
2019-02-08T05:49:52.672Z,81.74
2019-02-08T05:52:20.663Z,81.79
2019-02-08T05:54:54.231Z,81.69
2019-02-08T05:57:15.487Z,81.76
2019-02-08T05:59:42.927Z,81.76
2019-02-08T06:02:10.701Z,81.73
2019-02-08T06:04:38.154Z,81.86
2019-02-08T06:07:05.561Z,81.99
2019-02-08T06:09:32.962Z,82.10
2019-02-08T06:12:00.392Z,81.89
2019-02-08T06:14:27.803Z,81.84
2019-02-08T06:16:55.217Z,81.77
2019-02-08T06:19:22.634Z,81.82
2019-02-08T06:21:50.088Z,81.91
2019-02-08T06:24:17.527Z,81.90
2019-02-08T06:26:44.959Z,81.81
2019-02-08T06:29:12.436Z,81.84
2019-02-08T06:31:39.857Z,81.95
2019-02-08T06:34:07.339Z,81.76
2019-02-08T06:36:34.755Z,81.75
2019-02-08T06:39:02.167Z,81.95
2019-02-08T06:41:29.553Z,81.98
2019-02-08T06:43:56.971Z,81.80
2019-02-08T06:46:24.369Z,81.82
2019-02-08T06:48:51.806Z,81.69
2019-02-08T06:51:19.250Z,81.69
2019-02-08T06:53:46.683Z,81.25
2019-02-08T06:56:14.099Z,80.79
2019-02-08T06:58:41.506Z,80.90
2019-02-08T07:01:15.462Z,80.95
2019-02-08T07:03:48.391Z,80.91
2019-02-08T07:06:16.562Z,80.73
2019-02-08T07:08:50.372Z,80.53
2019-02-08T07:11:19.156Z,80.17
2019-02-08T07:14:04.432Z,79.87
2019-02-08T07:19:31.634Z,77.88
2019-02-08T07:21:59.030Z,78.01
2019-02-08T07:24:26.859Z,77.98
2019-02-08T07:27:09.983Z,78.27
2019-02-08T07:32:30.088Z,76.95
2019-02-08T07:34:58.435Z,77.41
2019-02-08T07:37:31.421Z,77.51
2019-02-08T07:40:13.715Z,77.36
2019-02-08T07:42:45.827Z,77.10
2019-02-08T07:45:13.507Z,76.65
2019-02-08T07:47:55.887Z,76.70
2019-02-08T07:50:23.654Z,76.77
2019-02-08T07:52:55.382Z,76.39
2019-02-08T07:55:26.065Z,75.98
2019-02-08T07:57:52.163Z,75.46
2019-02-08T08:03:15.648Z,72.44
2019-02-08T08:05:48.666Z,71.61
2019-02-08T08:08:16.186Z,70.87
2019-02-08T08:10:44.623Z,70.04
2019-02-08T08:13:17.849Z,68.71
2019-02-08T08:15:47.779Z,66.19
2019-02-08T08:18:20.654Z,64.22
2019-02-08T08:20:52.623Z,61.27
2019-02-08T08:23:21.315Z,58.63
2019-02-08T08:25:50.097Z,56.54
2019-02-08T08:28:19.894Z,54.61
2019-02-08T08:30:58.048Z,53.04
2019-02-08T08:33:36.955Z,51.69
2019-02-08T08:36:19.111Z,50.65
2019-02-08T08:38:50.010Z,49.45
2019-02-08T08:41:36.069Z,48.62
2019-02-08T08:44:18.336Z,47.88
2019-02-08T08:46:52.287Z,47.85
2019-02-08T08:49:34.592Z,48.54
2019-02-08T08:52:09.638Z,50.03
2019-02-08T08:54:43.496Z,50.31
2019-02-08T08:57:15.729Z,50.16
2019-02-08T08:59:49.563Z,49.44
2019-02-08T09:02:21.388Z,48.43
2019-02-08T09:05:03.280Z,48.65
2019-02-08T09:10:42.330Z,47.09
2019-02-08T09:13:26.369Z,48.70
2019-02-08T09:16:02.731Z,49.74
2019-02-08T09:18:40.907Z,50.09
2019-02-08T09:21:12.742Z,51.61
2019-02-08T09:24:00.560Z,51.90
2019-02-08T09:26:33.546Z,52.21
2019-02-08T09:32:32.488Z,50.72
2019-02-08T09:38:12.587Z,51.23
2019-02-08T09:41:01.783Z,52.07
2019-02-08T09:43:50.061Z,52.66
2019-02-08T09:46:29.268Z,52.78
2019-02-08T09:49:12.372Z,51.84
2019-02-08T09:51:47.344Z,51.83
2019-02-08T09:54:15.118Z,50.87
2019-02-08T09:57:09.297Z,50.28
2019-02-08T09:59:48.698Z,49.77
2019-02-08T10:05:26.891Z,47.67
2019-02-08T10:08:00.923Z,48.86
2019-02-08T10:10:47.028Z,48.78
2019-02-08T10:16:27.736Z,45.29
2019-02-08T10:19:06.833Z,45.52
2019-02-08T10:21:39.201Z,45.35
2019-02-08T10:27:23.924Z,44.35
2019-02-08T10:30:09.979Z,45.67
2019-02-08T10:35:59.809Z,43.59
2019-02-08T10:41:37.651Z,42.19
2019-02-08T10:44:12.568Z,42.83
2019-02-08T10:49:54.503Z,41.49
2019-02-08T10:52:33.738Z,42.48
2019-02-08T10:58:32.501Z,43.18
2019-02-08T11:01:11.547Z,43.91
2019-02-08T11:03:55.591Z,44.33
2019-02-08T11:13:03.422Z,41.45
2019-02-08T11:18:43.366Z,40.12
2019-02-08T11:21:10.969Z,41.27
2019-02-08T11:23:38.374Z,42.18
2019-02-08T11:26:05.803Z,42.98
2019-02-08T11:28:33.392Z,42.82
2019-02-08T11:31:00.783Z,42.60
2019-02-08T11:33:28.190Z,41.75
2019-02-08T11:35:56.269Z,41.55
2019-02-08T11:38:24.274Z,41.16
2019-02-08T11:40:51.689Z,39.68
2019-02-08T11:43:19.095Z,38.26
2019-02-08T11:45:46.540Z,38.73
2019-02-08T11:48:13.946Z,38.83
2019-02-08T11:50:41.414Z,39.01
2019-02-08T11:53:08.867Z,39.50
2019-02-08T11:55:36.312Z,40.01
2019-02-08T11:58:03.721Z,40.43
2019-02-08T12:00:33.134Z,41.47
2019-02-08T12:03:00.536Z,40.59
2019-02-08T12:05:27.999Z,40.02
2019-02-08T12:07:55.749Z,39.96
2019-02-08T12:10:23.245Z,40.02
2019-02-08T12:12:50.729Z,39.86
2019-02-08T12:15:18.211Z,39.48
2019-02-08T12:17:45.673Z,39.33
2019-02-08T12:20:13.095Z,38.66
2019-02-08T12:22:40.499Z,38.86
2019-02-08T12:25:10.247Z,39.21
2019-02-08T12:27:37.716Z,39.49
2019-02-08T12:30:08.093Z,39.00
2019-02-08T12:32:35.595Z,38.14
2019-02-08T12:35:03.096Z,37.64
2019-02-08T12:37:30.547Z,37.39
2019-02-08T12:39:58.012Z,37.48
2019-02-08T12:42:25.462Z,37.80
2019-02-08T12:44:52.925Z,37.87
2019-02-08T12:47:20.328Z,38.24
2019-02-08T12:49:47.877Z,39.18
2019-02-08T12:52:15.432Z,41.50
2019-02-08T12:54:42.853Z,42.72
2019-02-08T12:57:10.240Z,42.35
2019-02-08T12:59:37.652Z,40.74
2019-02-08T13:02:05.111Z,38.87
2019-02-08T13:04:32.536Z,39.45
2019-02-08T13:06:59.953Z,40.10
2019-02-08T13:09:27.396Z,41.24
2019-02-08T13:11:54.884Z,40.90
2019-02-08T13:14:22.309Z,39.16
2019-02-08T13:16:49.719Z,36.88
2019-02-08T13:19:17.181Z,35.63
2019-02-08T13:21:44.576Z,35.88
2019-02-08T13:24:11.996Z,37.79
2019-02-08T13:26:39.407Z,39.49
2019-02-08T13:29:06.878Z,41.23
2019-02-08T13:31:34.304Z,42.35
2019-02-08T13:34:01.727Z,42.99
2019-02-08T13:36:29.137Z,43.73
2019-02-08T13:38:56.570Z,44.40
2019-02-08T13:41:23.963Z,44.62
2019-02-08T13:43:51.483Z,44.63
2019-02-08T13:46:19.030Z,45.47
2019-02-08T13:48:46.601Z,45.31
2019-02-08T13:51:14.065Z,45.82
2019-02-08T13:53:41.522Z,46.84
2019-02-08T13:56:08.946Z,47.20
2019-02-08T13:58:36.338Z,47.67
2019-02-08T14:01:03.799Z,48.02
2019-02-08T14:03:31.194Z,48.83
2019-02-08T14:05:58.652Z,49.20
2019-02-08T14:08:26.053Z,49.94
2019-02-08T14:10:53.464Z,49.93
2019-02-08T14:13:20.858Z,50.29
2019-02-08T14:15:48.263Z,50.85
2019-02-08T14:18:15.692Z,50.81
2019-02-08T14:20:43.141Z,50.82
2019-02-08T14:23:10.787Z,50.77
2019-02-08T14:25:38.258Z,51.05
2019-02-08T14:28:05.708Z,51.42
2019-02-08T14:30:35.739Z,51.30
2019-02-08T14:33:03.175Z,50.98
2019-02-08T14:35:30.666Z,51.10
2019-02-08T14:37:58.618Z,51.11
2019-02-08T14:40:26.016Z,50.95
2019-02-08T14:42:53.441Z,50.95
2019-02-08T14:45:20.868Z,51.04
2019-02-08T14:47:48.311Z,51.17
2019-02-08T14:50:31.996Z,51.13
2019-02-08T14:52:59.471Z,51.76
2019-02-08T14:55:26.914Z,52.04
2019-02-08T14:57:54.320Z,52.59
2019-02-08T15:00:22.553Z,52.79
2019-02-08T15:02:50.002Z,52.56
2019-02-08T15:05:17.472Z,52.76
2019-02-08T15:07:45.098Z,53.10
2019-02-08T15:10:28.306Z,53.37
2019-02-08T15:12:55.751Z,53.62
2019-02-08T15:15:23.188Z,53.82
2019-02-08T15:17:50.603Z,53.60
2019-02-08T15:20:19.738Z,53.70
2019-02-08T15:22:47.152Z,53.79
2019-02-08T15:25:14.625Z,53.75
2019-02-08T15:27:42.617Z,54.08
2019-02-08T15:30:10.068Z,53.98
2019-02-08T15:32:37.502Z,54.26
2019-02-08T15:35:04.916Z,54.01
2019-02-08T15:37:32.360Z,54.53
2019-02-08T15:39:59.971Z,54.50
2019-02-08T15:42:27.426Z,55.05
2019-02-08T15:44:54.883Z,55.08
2019-02-08T15:47:22.388Z,55.13
2019-02-08T15:49:49.853Z,55.25
2019-02-08T15:52:17.276Z,55.16
2019-02-08T15:54:44.723Z,55.37
2019-02-08T15:57:12.258Z,55.76
2019-02-08T15:59:39.705Z,55.66
2019-02-08T16:02:07.150Z,55.58
2019-02-08T16:04:34.645Z,55.72
2019-02-08T16:07:02.054Z,55.91
2019-02-08T16:09:29.595Z,56.01
2019-02-08T16:11:56.981Z,56.30
2019-02-08T16:14:25.232Z,56.65
2019-02-08T16:16:52.847Z,56.96
2019-02-08T16:19:20.326Z,57.22
2019-02-08T16:21:47.909Z,57.60
2019-02-08T16:24:15.540Z,57.53
2019-02-08T16:26:42.943Z,57.51
2019-02-08T16:29:10.448Z,57.53
2019-02-08T16:31:38.217Z,57.81
2019-02-08T16:34:05.677Z,58.11
2019-02-08T16:36:33.132Z,57.95
2019-02-08T16:39:00.615Z,58.12
2019-02-08T16:41:28.130Z,58.22
2019-02-08T16:43:55.624Z,58.29
2019-02-08T16:46:23.059Z,58.47
2019-02-08T16:48:50.521Z,58.51
2019-02-08T16:51:18.004Z,58.18
2019-02-08T16:53:53.079Z,58.21
2019-02-08T16:56:13.064Z,58.05
2019-02-08T16:58:40.557Z,58.15
2019-02-08T17:01:08.215Z,57.73
2019-02-08T17:03:35.614Z,58.38
2019-02-08T17:06:03.345Z,58.69
2019-02-08T17:08:31.413Z,57.91
2019-02-08T17:10:58.840Z,57.17
2019-02-08T17:13:26.235Z,57.02
2019-02-08T17:15:53.681Z,56.42
2019-02-08T17:18:21.073Z,55.95
2019-02-08T17:20:48.489Z,55.70
2019-02-08T17:23:15.947Z,55.60
2019-02-08T17:25:43.359Z,55.67
2019-02-08T17:28:10.792Z,56.05
2019-02-08T17:30:38.223Z,56.17
2019-02-08T17:33:05.639Z,56.42
2019-02-08T17:35:33.064Z,56.68
2019-02-08T17:38:00.563Z,57.12
2019-02-08T17:40:30.366Z,57.57
2019-02-08T17:42:57.812Z,57.78
2019-02-08T17:45:25.281Z,57.63
2019-02-08T17:47:52.747Z,57.54
2019-02-08T17:50:21.712Z,57.50
2019-02-08T17:52:49.128Z,57.42
2019-02-08T17:55:16.662Z,57.44
2019-02-08T17:57:44.120Z,57.59
2019-02-08T18:00:12.866Z,57.70
2019-02-08T18:02:40.303Z,58.04
2019-02-08T18:05:07.718Z,58.13
2019-02-08T18:07:35.212Z,58.32
2019-02-08T18:10:02.879Z,58.29
2019-02-08T18:12:32.504Z,58.46
2019-02-08T18:14:57.745Z,58.88
2019-02-08T18:17:25.142Z,58.96
2019-02-08T18:19:52.537Z,59.23
2019-02-08T18:22:19.930Z,59.15
2019-02-08T18:24:47.355Z,59.12
2019-02-08T18:27:14.755Z,59.17
2019-02-08T18:29:42.597Z,59.21
2019-02-08T18:32:10.084Z,59.31
2019-02-08T18:34:37.552Z,59.23
2019-02-08T18:37:05.039Z,59.43
2019-02-08T18:39:32.664Z,59.28
2019-02-08T18:42:00.111Z,59.13
2019-02-08T18:44:27.502Z,59.27
2019-02-08T18:46:54.906Z,59.39
2019-02-08T18:49:22.667Z,59.41
2019-02-08T18:51:50.112Z,59.40
2019-02-08T18:54:17.507Z,59.06
2019-02-08T18:56:45.199Z,59.17
2019-02-08T18:59:12.622Z,59.23
2019-02-08T19:01:40.115Z,59.42
2019-02-08T19:04:07.757Z,59.59
2019-02-08T19:06:35.151Z,59.84
2019-02-08T19:09:02.560Z,60.06
2019-02-08T19:11:29.961Z,59.83
2019-02-08T19:13:57.690Z,60.05
2019-02-08T19:16:25.136Z,60.31
2019-02-08T19:18:52.539Z,60.25
2019-02-08T19:21:19.948Z,60.16
2019-02-08T19:23:47.423Z,59.98
2019-02-08T19:26:14.886Z,60.05
2019-02-08T19:28:42.339Z,59.79
2019-02-08T19:31:09.778Z,59.86
2019-02-08T19:33:37.252Z,60.14
2019-02-08T19:36:04.630Z,60.57
2019-02-08T19:38:32.117Z,61.08
2019-02-08T19:40:59.528Z,60.96
2019-02-08T19:43:27.019Z,60.96
2019-02-08T19:45:54.379Z,61.41
2019-02-08T19:48:21.801Z,61.70
2019-02-08T19:50:49.227Z,61.71
2019-02-08T19:53:16.670Z,62.14
2019-02-08T19:55:44.110Z,62.56
2019-02-08T19:58:11.740Z,62.76
2019-02-08T20:00:40.008Z,63.24
2019-02-08T20:03:07.424Z,63.58
2019-02-08T20:05:34.835Z,63.76
2019-02-08T20:08:02.282Z,63.70
2019-02-08T20:10:30.624Z,63.89
2019-02-08T20:12:58.085Z,63.64
2019-02-08T20:15:25.483Z,63.68
2019-02-08T20:17:52.893Z,63.61
2019-02-08T20:20:20.275Z,63.31
2019-02-08T20:22:47.678Z,62.93
2019-02-08T20:25:18.745Z,62.64
2019-02-08T20:27:46.162Z,62.30
2019-02-08T20:30:17.240Z,62.20
2019-02-08T20:32:44.714Z,62.21
2019-02-08T20:35:13.807Z,62.55
2019-02-08T20:37:42.101Z,63.32
2019-02-08T20:40:10.150Z,64.24
2019-02-08T20:42:37.558Z,65.28
2019-02-08T20:45:08.026Z,65.95
2019-02-08T20:47:35.420Z,67.09
2019-02-08T20:50:02.878Z,68.21
2019-02-08T20:52:30.322Z,68.71
2019-02-08T20:54:57.733Z,68.81
2019-02-08T20:57:25.181Z,68.91
2019-02-08T20:59:52.668Z,68.94
2019-02-08T21:02:20.133Z,68.97
2019-02-08T21:04:47.540Z,69.13
2019-02-08T21:07:14.958Z,69.51
2019-02-08T21:09:42.393Z,69.48
2019-02-08T21:12:09.971Z,69.24
2019-02-08T21:14:37.368Z,69.21
2019-02-08T21:17:04.883Z,69.28
2019-02-08T21:19:32.271Z,69.16
2019-02-08T21:21:59.668Z,69.10
2019-02-08T21:24:27.150Z,68.92
2019-02-08T21:26:54.707Z,68.99
2019-02-08T21:29:22.175Z,68.95
2019-02-08T21:31:49.623Z,68.72
2019-02-08T21:34:17.027Z,68.33
2019-02-08T21:36:44.451Z,67.86
2019-02-08T21:39:11.854Z,67.07
2019-02-08T21:41:39.369Z,66.26
2019-02-08T21:44:06.819Z,65.47
2019-02-08T21:46:37.287Z,64.58
2019-02-08T21:49:04.758Z,64.35
2019-02-08T21:51:32.217Z,64.01
2019-02-08T21:53:59.654Z,64.24
2019-02-08T21:56:27.074Z,65.01
2019-02-08T21:58:55.332Z,65.78
2019-02-08T22:01:22.747Z,66.16
2019-02-08T22:03:50.169Z,65.88
2019-02-08T22:06:17.729Z,65.88
2019-02-08T22:08:45.371Z,65.90
2019-02-08T22:11:12.768Z,66.59
2019-02-08T22:13:40.255Z,67.08
2019-02-08T22:16:07.736Z,66.99
2019-02-08T22:18:35.156Z,67.29
2019-02-08T22:21:02.574Z,67.80
2019-02-08T22:23:29.993Z,68.29
2019-02-08T22:25:57.495Z,68.43
2019-02-08T22:28:24.933Z,68.02
2019-02-08T22:30:52.333Z,67.40
2019-02-08T22:33:19.814Z,66.74
2019-02-08T22:35:47.221Z,66.08
2019-02-08T22:38:14.679Z,65.49
2019-02-08T22:40:42.094Z,64.24
2019-02-08T22:43:09.490Z,63.53
2019-02-08T22:45:37.543Z,62.88
2019-02-08T22:48:04.936Z,61.83
2019-02-08T22:50:32.360Z,60.79
2019-02-08T22:52:59.750Z,60.83
2019-02-08T22:55:28.769Z,61.14
2019-02-08T22:57:56.369Z,61.16
2019-02-08T23:03:23.816Z,59.95
2019-02-08T23:05:51.216Z,60.30
2019-02-08T23:08:18.663Z,60.27
2019-02-08T23:10:46.111Z,59.77
2019-02-08T23:13:13.497Z,59.97
2019-02-08T23:15:41.814Z,60.35
2019-02-08T23:18:09.931Z,60.53
2019-02-08T23:20:37.347Z,60.56
2019-02-08T23:23:04.730Z,60.79
2019-02-08T23:25:32.139Z,60.70
2019-02-08T23:27:59.744Z,61.03
2019-02-08T23:30:27.207Z,61.35
2019-02-08T23:32:54.601Z,60.99
2019-02-08T23:35:22.120Z,61.18
2019-02-08T23:37:49.603Z,61.14
2019-02-08T23:40:16.998Z,61.15
2019-02-08T23:42:44.454Z,60.74
2019-02-08T23:45:15.664Z,60.93
2019-02-08T23:47:43.376Z,60.87
2019-02-08T23:50:13.537Z,61.01
2019-02-08T23:52:40.934Z,60.74
2019-02-08T23:55:08.346Z,60.27
2019-02-08T23:57:36.603Z,60.50
